createdAt,value
2022-09-12T00:02:07.580Z,51.79
2022-09-12T00:04:34.322Z,52.51
2022-09-12T00:07:01.238Z,52.48
2022-09-12T00:09:28.021Z,51.76
2022-09-12T00:11:54.761Z,52.67
2022-09-12T00:14:21.604Z,51.63
2022-09-12T00:16:48.493Z,51.34
2022-09-12T00:19:15.478Z,52.93
2022-09-12T00:21:42.224Z,53.09
2022-09-12T00:24:10.807Z,52.93
2022-09-12T00:26:37.838Z,51.80
2022-09-12T00:29:04.805Z,51.52
2022-09-12T00:31:32.131Z,54.50
2022-09-12T00:34:03.242Z,53.24
2022-09-12T00:36:30.780Z,52.16
2022-09-12T00:38:58.211Z,52.86
2022-09-12T00:41:35.165Z,52.98
2022-09-12T00:44:04.445Z,52.71
2022-09-12T00:46:49.459Z,50.82
2022-09-12T00:49:27.629Z,50.90
2022-09-12T00:52:08.591Z,51.48
2022-09-12T00:54:47.550Z,51.72
2022-09-12T00:57:16.794Z,52.51
2022-09-12T00:59:50.718Z,51.21
2022-09-12T01:02:18.203Z,52.57
2022-09-12T01:04:45.277Z,52.16
2022-09-12T01:07:13.497Z,52.71
2022-09-12T01:09:42.491Z,53.02
2022-09-12T01:12:10.231Z,52.96
2022-09-12T01:14:38.878Z,52.14
2022-09-12T01:17:05.889Z,52.10
2022-09-12T01:19:45.420Z,50.89
2022-09-12T01:22:42.666Z,50.76
2022-09-12T01:25:15.091Z,50.41
2022-09-12T01:27:55.797Z,51.54
2022-09-12T01:31:00.964Z,50.95
2022-09-12T01:33:27.778Z,51.44
2022-09-12T01:36:19.374Z,51.47
2022-09-12T01:39:01.291Z,51.19
2022-09-12T01:41:40.229Z,51.40
2022-09-12T01:44:15.253Z,51.56
2022-09-12T01:46:54.135Z,51.04
2022-09-12T01:49:37.657Z,50.73
2022-09-12T01:52:25.758Z,50.13
2022-09-12T01:54:55.608Z,50.90
2022-09-12T01:57:32.201Z,51.33
2022-09-12T02:00:26.115Z,50.87
2022-09-12T02:03:05.378Z,51.14
2022-09-12T02:05:39.847Z,52.16
2022-09-12T02:08:15.056Z,51.27
2022-09-12T02:11:07.068Z,50.80
2022-09-12T02:13:49.973Z,50.40
2022-09-12T02:16:25.786Z,49.98
2022-09-12T02:18:57.689Z,50.40
2022-09-12T02:21:27.816Z,50.67
2022-09-12T02:23:59.466Z,51.30
2022-09-12T02:26:43.089Z,51.04
2022-09-12T02:29:09.963Z,50.64
2022-09-12T02:31:40.502Z,51.31
2022-09-12T02:34:49.521Z,50.69
2022-09-12T02:37:32.639Z,50.09
2022-09-12T02:40:00.896Z,50.02
2022-09-12T02:42:27.695Z,50.06
2022-09-12T02:44:57.036Z,49.17
2022-09-12T02:47:31.621Z,49.43
2022-09-12T02:50:00.301Z,48.49
2022-09-12T02:52:28.847Z,48.89
2022-09-12T02:54:57.707Z,49.08
2022-09-12T02:57:24.916Z,49.06
2022-09-12T02:59:55.898Z,48.49
2022-09-12T03:02:28.295Z,47.78
2022-09-12T03:05:27.271Z,47.79
2022-09-12T03:08:08.416Z,47.81
2022-09-12T03:11:23.110Z,48.38
2022-09-12T03:14:01.823Z,48.94
2022-09-12T03:16:37.664Z,48.31
2022-09-12T03:19:33.917Z,48.72
2022-09-12T03:22:06.716Z,48.07
2022-09-12T03:24:40.187Z,48.10
2022-09-12T03:27:20.929Z,49.17
2022-09-12T03:29:49.320Z,48.88
2022-09-12T03:32:16.280Z,49.05
2022-09-12T03:34:42.991Z,50.06
2022-09-12T03:37:09.893Z,49.29
2022-09-12T03:39:36.885Z,49.87
2022-09-12T03:42:03.855Z,48.94
2022-09-12T03:44:30.594Z,50.02
2022-09-12T03:46:57.393Z,50.20
2022-09-12T03:49:24.069Z,49.78
2022-09-12T03:51:50.961Z,49.48
2022-09-12T03:54:17.885Z,50.08
2022-09-12T03:56:44.595Z,50.51
2022-09-12T03:59:11.367Z,51.10
2022-09-12T04:01:38.471Z,50.62
2022-09-12T04:04:05.238Z,50.56
2022-09-12T04:06:32.300Z,50.21
2022-09-12T04:08:59.398Z,49.53
2022-09-12T04:11:26.271Z,50.21
2022-09-12T04:13:53.105Z,50.67
2022-09-12T04:16:20.534Z,49.96
2022-09-12T04:18:47.697Z,50.29
2022-09-12T04:21:19.641Z,51.11
2022-09-12T04:23:46.569Z,50.05
2022-09-12T04:26:14.346Z,49.83
2022-09-12T04:28:41.775Z,49.48
2022-09-12T04:31:12.620Z,49.64
2022-09-12T04:33:39.624Z,48.90
2022-09-12T04:36:14.600Z,49.12
2022-09-12T04:38:41.358Z,49.64
2022-09-12T04:41:15.478Z,49.35
2022-09-12T04:43:43.157Z,50.41
2022-09-12T04:46:12.209Z,49.92
2022-09-12T04:48:39.321Z,49.83
2022-09-12T04:51:13.697Z,49.38
2022-09-12T04:53:41.421Z,50.63
2022-09-12T04:56:10.033Z,48.43
2022-09-12T04:58:37.293Z,49.24
2022-09-12T05:01:06.457Z,48.97
2022-09-12T05:03:33.877Z,49.15
2022-09-12T05:06:03.821Z,49.61
2022-09-12T05:08:30.620Z,50.04
2022-09-12T05:11:05.367Z,50.00
2022-09-12T05:13:33.847Z,51.15
2022-09-12T05:16:02.651Z,49.40
2022-09-12T05:18:32.740Z,49.39
2022-09-12T05:21:00.865Z,48.49
2022-09-12T05:23:28.934Z,48.95
2022-09-12T05:25:57.875Z,48.23
2022-09-12T05:28:28.523Z,48.58
2022-09-12T05:31:03.190Z,48.58
2022-09-12T05:33:31.013Z,49.69
2022-09-12T05:35:57.958Z,48.72
2022-09-12T05:38:29.036Z,48.47
2022-09-12T05:41:17.588Z,48.51
2022-09-12T05:43:47.132Z,47.78
2022-09-12T05:46:19.537Z,48.46
2022-09-12T05:48:47.641Z,48.80
2022-09-12T05:51:20.656Z,47.59
2022-09-12T05:53:59.200Z,46.68
2022-09-12T05:56:28.616Z,46.23
2022-09-12T05:59:00.505Z,45.98
2022-09-12T06:01:29.557Z,46.03
2022-09-12T06:04:00.906Z,45.30
2022-09-12T06:06:29.875Z,44.95
2022-09-12T06:08:59.277Z,44.58
2022-09-12T06:11:28.762Z,45.94
2022-09-12T06:13:57.586Z,44.17
2022-09-12T06:16:32.962Z,44.24
2022-09-12T06:19:06.634Z,44.37
2022-09-12T06:21:35.481Z,45.08
2022-09-12T06:24:02.670Z,44.60
2022-09-12T06:26:30.049Z,44.97
2022-09-12T06:28:59.629Z,44.99
2022-09-12T06:31:29.331Z,45.58
2022-09-12T06:33:59.994Z,45.73
2022-09-12T06:36:30.115Z,45.88
2022-09-12T06:39:02.938Z,45.66
2022-09-12T06:41:31.289Z,45.75
2022-09-12T06:43:58.718Z,44.67
2022-09-12T06:46:26.342Z,44.76
2022-09-12T06:48:55.556Z,45.29
2022-09-12T06:51:22.331Z,44.68
2022-09-12T06:53:49.476Z,44.97
2022-09-12T06:56:21.458Z,44.86
2022-09-12T06:58:50.547Z,44.55
2022-09-12T07:01:20.007Z,44.25
2022-09-12T07:03:52.575Z,43.86
2022-09-12T07:06:23.084Z,44.62
2022-09-12T07:08:52.614Z,45.26
2022-09-12T07:11:25.436Z,45.32
2022-09-12T07:13:56.705Z,45.41
2022-09-12T07:16:24.029Z,44.41
2022-09-12T07:18:52.798Z,44.02
2022-09-12T07:21:20.728Z,43.68
2022-09-12T07:23:48.059Z,43.81
2022-09-12T07:26:16.553Z,43.03
2022-09-12T07:28:43.922Z,43.58
2022-09-12T07:31:16.991Z,42.09
2022-09-12T07:33:44.795Z,41.66
2022-09-12T07:36:16.242Z,43.10
2022-09-12T07:38:44.134Z,40.83
2022-09-12T07:41:12.792Z,40.88
2022-09-12T07:43:39.923Z,40.80
2022-09-12T07:46:06.746Z,39.56
2022-09-12T07:48:33.926Z,39.92
2022-09-12T07:51:03.650Z,40.28
2022-09-12T07:53:36.959Z,39.45
2022-09-12T07:56:05.601Z,38.56
2022-09-12T07:58:33.972Z,38.78
2022-09-12T08:01:12.573Z,38.30
2022-09-12T08:03:41.018Z,37.61
2022-09-12T08:06:08.784Z,38.43
2022-09-12T08:08:36.371Z,38.68
2022-09-12T08:11:06.056Z,37.76
2022-09-12T08:13:35.487Z,37.80
2022-09-12T08:16:06.153Z,37.80
2022-09-12T08:18:35.183Z,37.94
2022-09-12T08:21:05.455Z,37.38
2022-09-12T08:23:32.468Z,37.74
2022-09-12T08:26:05.307Z,38.02
2022-09-12T08:28:35.028Z,38.02
2022-09-12T08:31:02.879Z,38.22
2022-09-12T08:33:35.950Z,38.83
2022-09-12T08:36:17.363Z,38.01
2022-09-12T08:38:46.673Z,38.17
2022-09-12T08:41:27.209Z,37.68
2022-09-12T08:44:27.641Z,37.73
2022-09-12T08:47:26.964Z,37.51
2022-09-12T08:50:05.707Z,37.67
2022-09-12T08:52:53.402Z,38.47
2022-09-12T08:55:27.692Z,38.84
2022-09-12T08:57:54.848Z,38.75
2022-09-12T09:00:21.736Z,38.17
2022-09-12T09:03:06.725Z,38.02
2022-09-12T09:05:42.493Z,38.02
2022-09-12T09:08:29.631Z,37.03
2022-09-12T09:11:25.812Z,36.47
2022-09-12T09:14:29.524Z,36.38
2022-09-12T09:16:57.912Z,36.04
2022-09-12T09:19:42.501Z,36.50
2022-09-12T09:22:45.012Z,35.95
2022-09-12T09:25:23.734Z,36.82
2022-09-12T09:28:09.683Z,35.49
2022-09-12T09:30:37.003Z,35.70
2022-09-12T09:33:06.470Z,34.76
2022-09-12T09:35:48.856Z,35.42
2022-09-12T09:38:48.170Z,34.71
2022-09-12T09:41:38.342Z,34.34
2022-09-12T09:46:38.321Z,34.92
2022-09-12T09:49:07.261Z,34.13
2022-09-12T09:51:39.587Z,34.16
2022-09-12T09:54:18.735Z,35.85
2022-09-12T09:56:45.983Z,35.27
2022-09-12T09:59:18.352Z,35.54
2022-09-12T10:02:04.055Z,33.50
2022-09-12T10:04:39.194Z,33.43
2022-09-12T10:07:19.508Z,32.89
2022-09-12T10:10:07.714Z,33.56
2022-09-12T10:12:34.608Z,33.05
2022-09-12T10:15:16.056Z,32.84
2022-09-12T10:17:44.833Z,33.19
2022-09-12T10:20:31.724Z,31.94
2022-09-12T10:23:01.059Z,32.17
2022-09-12T10:25:28.543Z,31.86
2022-09-12T10:27:58.987Z,33.21
2022-09-12T10:30:28.591Z,32.60
2022-09-12T10:33:08.336Z,33.54
2022-09-12T10:35:50.020Z,33.99
2022-09-12T10:38:27.565Z,33.60
2022-09-12T10:41:05.530Z,32.89
2022-09-12T10:43:42.355Z,32.83
2022-09-12T10:46:18.433Z,32.43
2022-09-12T10:49:12.210Z,32.39
2022-09-12T10:51:39.212Z,32.62
2022-09-12T10:54:10.802Z,30.67
2022-09-12T10:57:19.612Z,30.74
2022-09-12T11:00:27.496Z,31.31
2022-09-12T11:03:25.252Z,31.49
2022-09-12T11:06:01.503Z,31.14
2022-09-12T11:08:47.289Z,31.42
2022-09-12T11:11:32.111Z,32.21
2022-09-12T11:14:14.578Z,32.24
2022-09-12T11:17:00.194Z,33.68
2022-09-12T11:19:54.491Z,32.35
2022-09-12T11:22:36.301Z,32.48
2022-09-12T11:25:25.059Z,31.88
2022-09-12T11:27:54.792Z,31.80
2022-09-12T11:30:21.676Z,31.83
2022-09-12T11:32:48.687Z,31.46
2022-09-12T11:35:17.428Z,32.44
2022-09-12T11:37:44.729Z,32.96
2022-09-12T11:40:40.125Z,32.17
2022-09-12T11:43:27.813Z,32.46
2022-09-12T11:45:57.801Z,32.68
2022-09-12T11:48:43.978Z,32.36
2022-09-12T11:51:27.556Z,32.49
2022-09-12T11:54:09.522Z,32.21
2022-09-12T11:56:43.017Z,32.23
2022-09-12T11:59:18.460Z,32.11
2022-09-12T12:01:51.292Z,31.23
2022-09-12T12:04:25.075Z,30.63
2022-09-12T12:07:03.769Z,30.89
2022-09-12T12:09:31.579Z,32.25
2022-09-12T12:12:03.449Z,31.68
2022-09-12T12:14:43.325Z,30.97
2022-09-12T12:17:16.730Z,31.99
2022-09-12T12:19:45.029Z,30.43
2022-09-12T12:22:22.098Z,30.22
2022-09-12T12:24:54.808Z,29.50
2022-09-12T12:27:50.021Z,28.72
2022-09-12T12:30:33.525Z,28.80
2022-09-12T12:33:02.073Z,29.43
2022-09-12T12:36:02.641Z,29.54
2022-09-12T12:38:37.346Z,30.40
2022-09-12T12:41:16.593Z,30.35
2022-09-12T12:43:54.725Z,30.93
2022-09-12T12:46:27.264Z,31.01
2022-09-12T12:49:09.700Z,30.10
2022-09-12T12:51:39.614Z,30.48
2022-09-12T12:54:31.034Z,30.23
2022-09-12T12:57:22.333Z,30.05
2022-09-12T12:59:53.785Z,29.91
2022-09-12T13:02:34.727Z,29.73
2022-09-12T13:05:06.510Z,29.42
2022-09-12T13:07:38.235Z,30.23
2022-09-12T13:10:08.127Z,30.04
2022-09-12T13:12:44.146Z,30.01
2022-09-12T13:15:47.352Z,29.68
2022-09-12T13:18:26.212Z,31.86
2022-09-12T13:21:08.298Z,32.11
2022-09-12T13:23:36.351Z,30.51
2022-09-12T13:26:09.996Z,30.67
2022-09-12T13:28:36.966Z,30.93
2022-09-12T13:31:24.811Z,31.58
2022-09-12T13:33:55.699Z,30.67
2022-09-12T13:36:30.360Z,30.80
2022-09-12T13:39:19.174Z,30.27
2022-09-12T13:42:22.759Z,29.22
2022-09-12T13:45:02.560Z,29.44
2022-09-12T13:47:41.613Z,30.05
2022-09-12T13:50:14.411Z,29.71
2022-09-12T13:52:48.217Z,29.82
2022-09-12T13:55:31.343Z,31.23
2022-09-12T13:58:07.181Z,31.84
2022-09-12T14:00:35.521Z,31.97
2022-09-12T14:03:32.087Z,31.29
2022-09-12T14:05:59.376Z,31.06
2022-09-12T14:08:27.020Z,28.86
2022-09-12T14:10:55.020Z,29.24
2022-09-12T14:13:25.224Z,28.57
2022-09-12T14:15:54.937Z,28.38
2022-09-12T14:18:27.937Z,28.25
2022-09-12T14:21:10.376Z,29.06
2022-09-12T14:23:45.147Z,30.33
2022-09-12T14:26:14.216Z,30.16
2022-09-12T14:28:43.056Z,30.03
2022-09-12T14:31:13.014Z,30.44
2022-09-12T14:34:08.783Z,30.04
2022-09-12T14:36:40.305Z,29.90
2022-09-12T14:39:41.213Z,30.66
2022-09-12T14:42:20.991Z,31.83
2022-09-12T14:44:57.713Z,30.91
2022-09-12T14:47:28.121Z,31.53
2022-09-12T14:49:55.144Z,33.13
2022-09-12T14:52:21.849Z,32.07
2022-09-12T14:55:04.409Z,30.75
2022-09-12T14:57:33.377Z,30.81
2022-09-12T15:00:12.136Z,30.53
2022-09-12T15:02:40.180Z,30.94
2022-09-12T15:05:06.855Z,31.53
2022-09-12T15:07:39.635Z,31.35
2022-09-12T15:10:25.578Z,30.62
2022-09-12T15:13:16.717Z,32.05
2022-09-12T15:15:46.737Z,32.21
2022-09-12T15:18:14.899Z,32.60
2022-09-12T15:20:44.027Z,32.64
2022-09-12T15:23:34.985Z,33.56
2022-09-12T15:26:03.262Z,32.77
2022-09-12T15:28:31.620Z,33.35
2022-09-12T15:31:05.317Z,33.90
2022-09-12T15:33:32.303Z,34.54
2022-09-12T15:35:59.123Z,33.94
2022-09-12T15:38:27.006Z,35.07
2022-09-12T15:40:54.780Z,34.81
2022-09-12T15:43:23.381Z,34.04
2022-09-12T15:45:51.824Z,33.99
2022-09-12T15:48:21.010Z,33.47
2022-09-12T15:50:48.559Z,34.40
2022-09-12T15:53:16.650Z,35.80
2022-09-12T15:55:43.848Z,35.04
2022-09-12T15:58:10.763Z,35.01
2022-09-12T16:00:37.874Z,36.14
2022-09-12T16:03:04.970Z,36.03
2022-09-12T16:05:32.316Z,35.29
2022-09-12T16:07:59.078Z,35.79
2022-09-12T16:10:30.220Z,35.40
2022-09-12T16:12:59.852Z,36.14
2022-09-12T16:15:26.655Z,36.33
2022-09-12T16:17:53.980Z,35.78
2022-09-12T16:20:21.894Z,36.66
2022-09-12T16:22:48.841Z,36.44
2022-09-12T16:25:15.835Z,36.16
2022-09-12T16:27:43.132Z,36.15
2022-09-12T16:30:10.488Z,35.50
2022-09-12T16:32:37.231Z,35.55
2022-09-12T16:35:04.833Z,35.67
2022-09-12T16:37:34.519Z,35.91
2022-09-12T16:40:02.613Z,36.61
2022-09-12T16:42:29.839Z,36.65
2022-09-12T16:44:56.833Z,36.03
2022-09-12T16:47:23.951Z,36.10
2022-09-12T16:49:51.417Z,36.38
2022-09-12T16:52:19.202Z,35.41
2022-09-12T16:54:46.051Z,36.49
2022-09-12T16:57:13.183Z,36.57
2022-09-12T16:59:39.917Z,37.01
2022-09-12T17:02:07.957Z,36.98
2022-09-12T17:04:34.787Z,36.94
2022-09-12T17:07:01.721Z,37.26
2022-09-12T17:09:29.454Z,37.01
2022-09-12T17:11:56.667Z,36.96
2022-09-12T17:14:23.809Z,36.65
2022-09-12T17:16:52.165Z,36.73
2022-09-12T17:19:22.783Z,37.04
2022-09-12T17:21:50.141Z,35.95
2022-09-12T17:24:17.680Z,36.35
2022-09-12T17:26:45.832Z,36.47
2022-09-12T17:29:13.903Z,36.47
2022-09-12T17:31:43.250Z,36.59
2022-09-12T17:34:14.323Z,37.71
2022-09-12T17:36:44.497Z,37.64
2022-09-12T17:39:13.066Z,37.07
2022-09-12T17:41:41.829Z,36.14
2022-09-12T17:44:12.555Z,36.59
2022-09-12T17:46:39.885Z,36.81
2022-09-12T17:49:11.268Z,36.62
2022-09-12T17:51:38.356Z,37.10
2022-09-12T17:54:15.763Z,37.14
2022-09-12T17:56:44.346Z,36.42
2022-09-12T17:59:14.909Z,36.19
2022-09-12T18:02:00.555Z,36.46
2022-09-12T18:04:27.800Z,36.30
2022-09-12T18:06:54.708Z,36.80
2022-09-12T18:09:23.375Z,36.57
2022-09-12T18:11:50.844Z,36.27
2022-09-12T18:14:18.408Z,36.71
2022-09-12T18:16:46.656Z,36.63
2022-09-12T18:19:14.318Z,37.90
2022-09-12T18:21:41.566Z,36.68
2022-09-12T18:24:10.075Z,35.87
2022-09-12T18:26:37.394Z,36.13
2022-09-12T18:29:04.314Z,36.82
2022-09-12T18:31:31.426Z,36.61
2022-09-12T18:34:02.716Z,36.51
2022-09-12T18:36:30.601Z,37.46
2022-09-12T18:38:58.931Z,36.50
2022-09-12T18:41:29.123Z,37.21
2022-09-12T18:43:57.682Z,37.51
2022-09-12T18:46:25.690Z,37.28
2022-09-12T18:48:55.495Z,37.78
2022-09-12T18:51:31.413Z,37.42
2022-09-12T18:54:01.154Z,37.58
2022-09-12T18:56:32.879Z,37.55
2022-09-12T18:59:01.115Z,37.54
2022-09-12T19:01:31.299Z,37.14
2022-09-12T19:03:59.016Z,37.57
2022-09-12T19:06:28.350Z,37.84
2022-09-12T19:08:56.775Z,38.16
2022-09-12T19:11:25.100Z,38.39
2022-09-12T19:13:53.236Z,37.41
2022-09-12T19:16:23.012Z,36.69
2022-09-12T19:18:52.288Z,37.16
2022-09-12T19:21:27.245Z,37.29
2022-09-12T19:23:58.429Z,37.13
2022-09-12T19:26:25.496Z,37.82
2022-09-12T19:28:54.537Z,36.88
2022-09-12T19:31:23.368Z,37.00
2022-09-12T19:33:52.159Z,37.28
2022-09-12T19:36:44.405Z,37.95
2022-09-12T19:39:08.686Z,38.05
2022-09-12T19:41:36.084Z,37.64
2022-09-12T19:44:04.541Z,38.29
2022-09-12T19:46:31.632Z,37.93
2022-09-12T19:48:58.639Z,38.13
2022-09-12T19:51:25.541Z,37.74
2022-09-12T19:53:53.072Z,38.00
2022-09-12T19:56:21.314Z,38.32
2022-09-12T19:58:53.742Z,37.06
2022-09-12T20:01:25.679Z,36.94
2022-09-12T20:03:55.477Z,36.63
2022-09-12T20:06:22.535Z,37.30
2022-09-12T20:08:49.472Z,38.06
2022-09-12T20:11:19.343Z,38.55
2022-09-12T20:13:46.967Z,38.05
2022-09-12T20:16:21.792Z,38.44
2022-09-12T20:18:54.661Z,38.51
2022-09-12T20:21:25.579Z,37.59
2022-09-12T20:23:52.675Z,38.41
2022-09-12T20:26:20.391Z,38.57
2022-09-12T20:28:47.839Z,38.12
2022-09-12T20:31:16.600Z,38.11
2022-09-12T20:33:47.541Z,37.61
2022-09-12T20:36:19.402Z,38.54
2022-09-12T20:38:51.919Z,38.77
2022-09-12T20:41:20.087Z,37.76
2022-09-12T20:43:53.583Z,37.99
2022-09-12T20:46:22.650Z,37.61
2022-09-12T20:48:50.655Z,37.47
2022-09-12T20:51:18.162Z,37.02
2022-09-12T20:53:45.446Z,37.91
2022-09-12T20:56:12.300Z,37.87
2022-09-12T20:58:43.574Z,38.40
2022-09-12T21:01:12.392Z,38.04
2022-09-12T21:03:40.828Z,38.63
2022-09-12T21:06:09.134Z,37.33
2022-09-12T21:08:37.278Z,38.56
2022-09-12T21:11:04.708Z,38.05
2022-09-12T21:13:31.529Z,38.48
2022-09-12T21:16:05.752Z,38.08
2022-09-12T21:18:33.939Z,38.80
2022-09-12T21:21:01.009Z,38.41
2022-09-12T21:23:28.732Z,38.91
2022-09-12T21:25:55.799Z,38.85
2022-09-12T21:28:22.911Z,38.83
2022-09-12T21:30:50.461Z,37.85
2022-09-12T21:33:18.758Z,38.14
2022-09-12T21:35:47.017Z,38.25
2022-09-12T21:38:17.859Z,38.62
2022-09-12T21:40:45.267Z,38.70
2022-09-12T21:43:13.003Z,39.58
2022-09-12T21:45:40.708Z,39.55
2022-09-12T21:48:07.678Z,38.65
2022-09-12T21:50:34.507Z,39.84
2022-09-12T21:53:01.319Z,40.08
2022-09-12T21:55:28.270Z,40.35
2022-09-12T21:57:55.473Z,40.46
2022-09-12T22:00:22.932Z,40.46
2022-09-12T22:02:49.711Z,39.78
2022-09-12T22:05:17.327Z,39.73
2022-09-12T22:07:44.701Z,39.71
2022-09-12T22:10:11.540Z,40.21
2022-09-12T22:12:40.771Z,39.40
2022-09-12T22:15:36.395Z,40.40
2022-09-12T22:17:57.400Z,39.99
2022-09-12T22:20:24.143Z,40.21
2022-09-12T22:23:09.436Z,40.04
2022-09-12T22:25:36.572Z,40.97
2022-09-12T22:28:03.586Z,40.95
2022-09-12T22:30:31.705Z,41.22
2022-09-12T22:32:58.486Z,40.15
2022-09-12T22:35:25.490Z,40.97
2022-09-12T22:37:52.415Z,41.02
2022-09-12T22:40:19.976Z,40.74
2022-09-12T22:42:46.787Z,42.12
2022-09-12T22:45:13.636Z,41.73
2022-09-12T22:47:41.378Z,42.80
2022-09-12T22:50:08.288Z,41.43
2022-09-12T22:52:35.216Z,42.57
2022-09-12T22:55:03.398Z,43.17
2022-09-12T22:57:30.165Z,43.23
2022-09-12T22:59:56.888Z,41.71
2022-09-12T23:02:23.669Z,42.75
2022-09-12T23:04:52.152Z,41.48
2022-09-12T23:07:18.981Z,41.76
2022-09-12T23:09:46.416Z,42.11
2022-09-12T23:12:13.546Z,42.22
2022-09-12T23:14:40.294Z,41.32
2022-09-12T23:17:07.011Z,41.94
2022-09-12T23:19:33.908Z,41.85
2022-09-12T23:22:00.632Z,42.28
2022-09-12T23:24:27.500Z,43.54
2022-09-12T23:26:54.446Z,44.22
2022-09-12T23:29:21.272Z,43.73
2022-09-12T23:31:48.718Z,43.20
2022-09-12T23:34:15.609Z,43.93
2022-09-12T23:36:42.467Z,42.83
2022-09-12T23:39:09.642Z,42.83
2022-09-12T23:41:36.565Z,43.48
2022-09-12T23:44:03.497Z,41.87
2022-09-12T23:46:30.328Z,41.91
2022-09-12T23:48:57.132Z,42.18
2022-09-12T23:51:23.942Z,41.84
2022-09-12T23:53:51.106Z,43.27
2022-09-12T23:56:18.040Z,42.49
2022-09-12T23:58:45.056Z,42.90
